Time;durP1;ratioP1;P1;durP2;ratioP2;P2;SDS_P1;SDS_P2;PMS_P1;PMS_P2;Temp;Humidity;BMP_temperature;BMP_pressure;BME280_temperature;BME280_humidity;BME280_pressure;Samples;Min_cycle;Max_cycle;Signal;HPM_P1;HPM_P2
2021/07/12 00:00:49;;;;;;;0.40;0.20;;;16.60;99.90;;;;;;5113780;28;20508;-76
2021/07/12 00:03:15;;;;;;;0.40;0.20;;;16.50;99.90;;;;;;5114085;28;20852;-76
2021/07/12 00:05:41;;;;;;;0.40;0.20;;;16.60;99.90;;;;;;5114613;28;20412;-76
2021/07/12 00:08:08;;;;;;;0.40;0.30;;;16.50;99.90;;;;;;5113725;28;20431;-76
2021/07/12 00:10:34;;;;;;;0.40;0.20;;;16.50;99.90;;;;;;5096136;28;20757;-76
2021/07/12 00:13:00;;;;;;;0.40;0.20;;;16.50;99.90;;;;;;5114053;28;20399;-76
2021/07/12 00:15:27;;;;;;;0.40;0.22;;;16.60;99.90;;;;;;5095863;28;20384;-76
2021/07/12 00:17:54;;;;;;;0.40;0.20;;;16.60;99.90;;;;;;5113535;28;20717;-77
2021/07/12 00:20:21;;;;;;;0.40;0.30;;;16.50;99.90;;;;;;5113705;28;20955;-76
2021/07/12 00:22:48;;;;;;;0.40;0.30;;;16.50;99.90;;;;;;5113565;28;20723;-76
2021/07/12 00:25:15;;;;;;;0.40;0.20;;;16.60;99.90;;;;;;5113882;28;20452;-76
2021/07/12 00:27:41;;;;;;;0.40;0.20;;;16.60;99.90;;;;;;5114022;28;20405;-76
2021/07/12 00:30:13;;;;;;;0.40;0.20;;;16.60;99.90;;;;;;5113290;28;20463;-76
2021/07/12 00:32:40;;;;;;;0.40;0.20;;;16.60;99.90;;;;;;5114055;28;20455;-76
2021/07/12 00:35:08;;;;;;;0.40;0.20;;;16.70;99.90;;;;;;5113125;28;20486;-76
2021/07/12 00:37:34;;;;;;;0.40;0.20;;;16.60;99.90;;;;;;5113812;28;20368;-76
2021/07/12 00:39:59;;;;;;;0.40;0.20;;;16.60;99.90;;;;;;5113026;28;20449;-76
2021/07/12 00:42:25;;;;;;;0.40;0.20;;;16.60;99.90;;;;;;5113732;28;20384;-76
2021/07/12 00:44:51;;;;;;;0.40;0.20;;;16.50;99.90;;;;;;5112956;28;20383;-76
2021/07/12 00:47:16;;;;;;;0.40;0.20;;;16.60;99.90;;;;;;5113717;28;20845;-76
2021/07/12 00:49:42;;;;;;;0.40;0.20;;;16.50;99.90;;;;;;5113507;28;20875;-76
2021/07/12 00:52:08;;;;;;;0.40;0.20;;;16.40;99.90;;;;;;5112609;28;20864;-76
2021/07/12 00:54:35;;;;;;;0.40;0.20;;;16.40;99.90;;;;;;5113534;28;20387;-76
2021/07/12 00:57:04;;;;;;;0.40;0.20;;;16.30;99.90;;;;;;5112834;28;20836;-76
2021/07/12 00:59:29;;;;;;;0.40;0.20;;;16.30;99.90;;;;;;5113259;28;20426;-76
2021/07/12 01:01:55;;;;;;;0.40;0.30;;;16.20;99.90;;;;;;5112600;28;20393;-76
2021/07/12 01:04:21;;;;;;;0.40;0.20;;;16.30;99.90;;;;;;5094086;28;20945;-76
2021/07/12 01:06:47;;;;;;;0.40;0.20;;;16.30;99.90;;;;;;5113230;28;20464;-76
2021/07/12 01:09:12;;;;;;;0.40;0.20;;;16.30;99.90;;;;;;5112501;28;20464;-76
2021/07/12 01:12:04;;;;;;;0.40;0.20;;;16.30;99.90;;;;;;5112967;28;20373;-76
2021/07/12 01:14:51;;;;;;;0.40;0.30;;;16.30;99.90;;;;;;5112809;28;20400;-76
2021/07/12 01:17:37;;;;;;;0.40;0.30;;;16.30;99.90;;;;;;5112768;28;20381;-76
2021/07/12 01:20:09;;;;;;;0.40;0.20;;;16.30;99.90;;;;;;5112240;28;20404;-76
2021/07/12 01:23:13;;;;;;;0.40;0.20;;;16.30;99.90;;;;;;5113075;28;20388;-76
2021/07/12 01:26:26;;;;;;;0.40;0.20;;;16.30;99.90;;;;;;5070539;28;20745;-76
2021/07/12 01:29:24;;;;;;;0.40;0.20;;;16.30;99.90;;;;;;5111880;28;20392;-76
2021/07/12 01:31:58;;;;;;;0.40;0.23;;;16.20;99.90;;;;;;5112163;28;20457;-78
2021/07/12 01:34:34;;;;;;;0.40;0.20;;;16.20;99.90;;;;;;5094447;28;20392;-76
2021/07/12 01:37:24;;;;;;;0.40;0.20;;;16.10;99.90;;;;;;5112011;28;20380;-76
2021/07/12 01:40:03;;;;;;;0.40;0.20;;;16.00;99.90;;;;;;5112067;28;20424;-78
2021/07/12 01:42:57;;;;;;;0.40;0.20;;;16.10;99.90;;;;;;5112434;28;20373;-76
2021/07/12 01:45:26;;;;;;;0.40;0.20;;;16.10;99.90;;;;;;5102519;28;20388;-76
2021/07/12 01:48:48;;;;;;;0.40;0.20;;;16.10;99.90;;;;;;5111831;28;20376;-77
2021/07/12 01:51:16;;;;;;;0.40;0.30;;;16.00;99.90;;;;;;5097824;28;20392;-76
2021/07/12 01:53:52;;;;;;;0.40;0.20;;;16.00;99.90;;;;;;5112036;28;20979;-77
2021/07/12 01:56:40;;;;;;;0.40;0.20;;;16.00;99.90;;;;;;5112295;28;20717;-76
2021/07/12 01:59:14;;;;;;;0.40;0.20;;;15.90;99.90;;;;;;5111601;28;20499;-76
2021/07/12 02:01:40;;;;;;;0.40;0.30;;;15.90;99.90;;;;;;5112277;28;20377;-76
2021/07/12 02:04:07;;;;;;;0.40;0.20;;;15.90;99.90;;;;;;5111737;28;20690;-76
2021/07/12 02:06:38;;;;;;;0.40;0.30;;;16.00;99.90;;;;;;5112078;28;20406;-76
2021/07/12 02:09:06;;;;;;;0.40;0.30;;;15.90;99.90;;;;;;5111509;28;20420;-76
2021/07/12 02:11:32;;;;;;;0.40;0.20;;;15.90;99.90;;;;;;5111571;28;20384;-76
2021/07/12 02:13:58;;;;;;;0.40;0.30;;;16.00;99.90;;;;;;5111088;28;20404;-76
2021/07/12 02:16:26;;;;;;;0.40;0.20;;;16.00;99.90;;;;;;5093556;28;20388;-76
2021/07/12 02:18:53;;;;;;;0.40;0.20;;;15.90;99.90;;;;;;5111891;28;20436;-76
2021/07/12 02:21:20;;;;;;;0.40;0.30;;;15.90;99.90;;;;;;5111772;28;20404;-76
2021/07/12 02:23:48;;;;;;;0.40;0.22;;;15.90;99.90;;;;;;5111880;28;20399;-76
2021/07/12 02:26:15;;;;;;;0.40;0.20;;;15.90;99.90;;;;;;5092379;28;20388;-76
2021/07/12 02:28:44;;;;;;;0.40;0.20;;;15.90;99.90;;;;;;5111849;28;20380;-77
2021/07/12 02:31:15;;;;;;;0.60;0.50;;;15.90;99.90;;;;;;5110991;28;20375;-76
2021/07/12 02:33:42;;;;;;;0.40;0.20;;;15.90;99.90;;;;;;5111839;28;20371;-76
2021/07/12 02:36:09;;;;;;;0.40;0.20;;;15.90;99.90;;;;;;5110590;28;20905;-76
2021/07/12 02:38:39;;;;;;;0.40;0.20;;;15.70;99.90;;;;;;5111461;28;20440;-76
2021/07/12 02:41:05;;;;;;;0.40;0.20;;;15.70;99.90;;;;;;5110825;28;20437;-76
2021/07/12 02:43:33;;;;;;;0.40;0.20;;;15.60;99.90;;;;;;5111499;28;20385;-76
2021/07/12 02:46:00;;;;;;;0.40;0.30;;;15.70;99.90;;;;;;5092846;28;20392;-76
2021/07/12 02:48:27;;;;;;;0.40;0.20;;;15.60;99.90;;;;;;5111194;28;20391;-76
2021/07/12 02:50:55;;;;;;;0.40;0.20;;;15.50;99.90;;;;;;5111294;28;20369;-76
2021/07/12 02:53:27;;;;;;;0.40;0.20;;;15.60;99.90;;;;;;5091346;28;20897;-76
2021/07/12 02:55:53;;;;;;;0.40;0.20;;;15.50;99.90;;;;;;5090675;28;20382;-76
2021/07/12 02:58:19;;;;;;;0.40;0.20;;;15.60;99.90;;;;;;5090308;28;20386;-76
2021/07/12 03:00:45;;;;;;;0.40;0.20;;;15.60;99.90;;;;;;5090939;28;20394;-77
2021/07/12 03:03:11;;;;;;;0.40;0.20;;;15.50;99.90;;;;;;5089954;28;20374;-76
2021/07/12 03:05:37;;;;;;;0.40;0.20;;;15.50;99.90;;;;;;5090789;28;20374;-76
2021/07/12 03:08:02;;;;;;;0.40;0.20;;;15.50;99.90;;;;;;5090036;28;20872;-76
2021/07/12 03:10:30;;;;;;;0.40;0.20;;;15.50;99.90;;;;;;5090761;28;20378;-76
2021/07/12 03:13:02;;;;;;;0.40;0.30;;;15.60;99.90;;;;;;5090159;28;20388;-78
2021/07/12 03:15:40;;;;;;;0.40;0.20;;;15.60;99.90;;;;;;5090749;28;20423;-76
2021/07/12 03:18:09;;;;;;;0.60;0.40;;;15.60;99.90;;;;;;5090025;28;20382;-76
2021/07/12 03:20:37;;;;;;;0.40;0.20;;;15.70;99.90;;;;;;5090575;28;20406;-76
2021/07/12 03:23:04;;;;;;;0.40;0.20;;;15.60;99.90;;;;;;5089980;28;20876;-76
2021/07/12 03:25:35;;;;;;;0.40;0.20;;;15.60;99.90;;;;;;5090621;28;20382;-76
2021/07/12 03:28:03;;;;;;;0.40;0.20;;;15.60;99.90;;;;;;5093311;28;20413;-76
2021/07/12 03:30:32;;;;;;;0.40;0.20;;;15.60;99.90;;;;;;5094853;28;20439;-76
2021/07/12 03:32:59;;;;;;;0.40;0.20;;;15.50;99.90;;;;;;5093870;28;20469;-77
2021/07/12 03:35:48;;;;;;;0.40;0.30;;;15.50;99.90;;;;;;5094758;28;20853;-76
2021/07/12 03:38:18;;;;;;;0.40;0.20;;;15.30;99.90;;;;;;5094146;28;20378;-77
2021/07/12 03:40:44;;;;;;;0.40;0.30;;;15.20;99.90;;;;;;5094469;28;20416;-76
2021/07/12 03:43:14;;;;;;;0.40;0.20;;;15.20;99.90;;;;;;5093517;28;20455;-76
2021/07/12 03:45:42;;;;;;;0.40;0.20;;;15.10;99.90;;;;;;5094485;28;20374;-76
2021/07/12 03:48:08;;;;;;;0.40;0.20;;;15.20;99.90;;;;;;5093612;28;20393;-76
2021/07/12 03:50:34;;;;;;;0.40;0.20;;;15.10;99.90;;;;;;5094326;28;20385;-76
2021/07/12 03:53:01;;;;;;;0.40;0.20;;;15.10;99.90;;;;;;5093573;28;20937;-76
2021/07/12 03:55:28;;;;;;;0.40;0.20;;;15.00;99.90;;;;;;5076163;28;20386;-76
2021/07/12 03:57:54;;;;;;;0.40;0.20;;;15.10;99.90;;;;;;5094076;28;20393;-76
2021/07/12 04:00:23;;;;;;;0.40;0.20;;;15.10;99.90;;;;;;5093481;28;20406;-76
2021/07/12 04:02:50;;;;;;;0.40;0.20;;;15.20;99.90;;;;;;5094789;28;20716;-76
2021/07/12 04:05:17;;;;;;;0.40;0.20;;;15.10;99.90;;;;;;5094006;28;20465;-76
2021/07/12 04:07:43;;;;;;;0.40;0.20;;;15.30;99.90;;;;;;5094501;28;20374;-76
2021/07/12 04:10:11;;;;;;;0.40;0.20;;;15.30;99.90;;;;;;5093892;28;20378;-77
2021/07/12 04:12:39;;;;;;;0.40;0.20;;;15.20;99.90;;;;;;5094427;28;20481;-76
2021/07/12 04:15:06;;;;;;;0.40;0.20;;;15.10;99.90;;;;;;5093730;28;20393;-76
2021/07/12 04:17:31;;;;;;;0.40;0.20;;;15.30;99.90;;;;;;5094271;28;20702;-76
2021/07/12 04:19:57;;;;;;;0.40;0.20;;;15.20;99.90;;;;;;5094180;28;20484;-76
2021/07/12 04:22:24;;;;;;;0.40;0.20;;;15.30;99.90;;;;;;5093229;28;20927;-76
2021/07/12 04:24:50;;;;;;;0.40;0.20;;;15.40;99.90;;;;;;5094225;28;20435;-76
2021/07/12 04:27:16;;;;;;;0.40;0.20;;;15.60;99.90;;;;;;5093021;28;20410;-76
2021/07/12 04:29:42;;;;;;;0.40;0.20;;;15.70;99.90;;;;;;5094442;28;20780;-76
2021/07/12 04:32:08;;;;;;;0.40;0.30;;;15.50;99.90;;;;;;5093477;28;20795;-76
2021/07/12 04:34:34;;;;;;;0.40;0.20;;;15.60;99.90;;;;;;5094022;28;20486;-76
2021/07/12 04:36:59;;;;;;;0.40;0.20;;;15.70;99.90;;;;;;5093777;28;20466;-76
2021/07/12 04:39:25;;;;;;;0.40;0.20;;;15.70;99.90;;;;;;5093179;28;20943;-76
2021/07/12 04:41:51;;;;;;;0.40;0.20;;;15.70;99.90;;;;;;5093795;28;20382;-76
2021/07/12 04:44:17;;;;;;;0.40;0.20;;;15.70;99.90;;;;;;5093028;28;20383;-76
2021/07/12 04:46:42;;;;;;;0.40;0.23;;;15.90;99.90;;;;;;5075575;28;20382;-76
2021/07/12 04:49:08;;;;;;;0.40;0.20;;;15.90;99.90;;;;;;5092611;28;20378;-76
2021/07/12 04:51:34;;;;;;;0.40;0.20;;;16.00;99.90;;;;;;5098304;28;20392;-76
2021/07/12 04:54:00;;;;;;;0.40;0.20;;;16.00;99.90;;;;;;5113985;28;20876;-76
2021/07/12 04:56:25;;;;;;;0.40;0.20;;;16.00;99.90;;;;;;5104482;28;20467;-76
2021/07/12 04:58:52;;;;;;;0.40;0.30;;;16.10;99.90;;;;;;5101712;28;20495;-76
2021/07/12 05:01:21;;;;;;;0.40;0.20;;;16.10;99.90;;;;;;5100965;28;20378;-76
2021/07/12 05:03:47;;;;;;;0.40;0.30;;;16.20;99.90;;;;;;5103075;28;20937;-76
2021/07/12 05:06:13;;;;;;;0.40;0.20;;;16.20;99.90;;;;;;5103442;28;20410;-76
2021/07/12 05:08:38;;;;;;;0.40;0.20;;;16.30;99.90;;;;;;5103605;28;20377;-77
2021/07/12 05:11:05;;;;;;;0.40;0.20;;;16.20;99.90;;;;;;5100722;28;20900;-78
2021/07/12 05:13:31;;;;;;;0.40;0.30;;;16.20;99.90;;;;;;5108950;28;20388;-76
2021/07/12 05:15:57;;;;;;;0.40;0.30;;;16.40;99.90;;;;;;5101742;28;20411;-76
2021/07/12 05:18:22;;;;;;;0.40;0.20;;;16.30;99.90;;;;;;5112364;28;20372;-76
2021/07/12 05:20:48;;;;;;;0.40;0.20;;;16.40;99.90;;;;;;5095052;28;20414;-77
2021/07/12 05:23:14;;;;;;;0.40;0.20;;;16.50;99.90;;;;;;5093528;28;20413;-76
2021/07/12 05:25:39;;;;;;;0.40;0.20;;;16.60;99.90;;;;;;5092776;28;20370;-77
2021/07/12 05:28:05;;;;;;;0.40;0.20;;;16.70;99.90;;;;;;5091245;28;20402;-77
2021/07/12 05:30:32;;;;;;;0.40;0.20;;;16.80;99.90;;;;;;5092806;28;20394;-77
2021/07/12 05:32:57;;;;;;;0.40;0.20;;;17.00;99.90;;;;;;5074681;28;20385;-77
2021/07/12 05:35:23;;;;;;;0.40;0.20;;;17.10;99.90;;;;;;5092011;28;20390;-77
2021/07/12 05:37:49;;;;;;;0.40;0.30;;;17.30;99.90;;;;;;5105775;28;20733;-77
2021/07/12 05:40:15;;;;;;;0.40;0.20;;;17.40;99.90;;;;;;5112477;28;20732;-77
2021/07/12 05:42:41;;;;;;;0.40;0.30;;;17.40;99.90;;;;;;5113136;28;20420;-76
2021/07/12 05:45:07;;;;;;;0.40;0.20;;;17.40;99.90;;;;;;5112238;28;20376;-77
2021/07/12 05:47:33;;;;;;;0.40;0.20;;;17.40;99.90;;;;;;5113045;28;20419;-77
2021/07/12 05:49:59;;;;;;;0.40;0.20;;;17.40;99.90;;;;;;5097383;28;20469;-76
2021/07/12 05:52:24;;;;;;;0.40;0.20;;;17.50;99.90;;;;;;5099949;28;20686;-77
2021/07/12 05:54:50;;;;;;;0.40;0.20;;;17.60;99.90;;;;;;5108299;28;20748;-77
2021/07/12 05:57:15;;;;;;;0.40;0.20;;;17.70;99.90;;;;;;5111145;28;20413;-77
2021/07/12 05:59:41;;;;;;;0.40;0.20;;;17.70;99.90;;;;;;5111667;28;20440;-77
2021/07/12 06:02:08;;;;;;;0.40;0.20;;;17.80;99.90;;;;;;5079648;28;20403;-79
2021/07/12 06:04:34;;;;;;;0.40;0.20;;;17.80;99.90;;;;;;5101958;28;20388;-77
2021/07/12 06:06:59;;;;;;;0.40;0.30;;;17.90;99.90;;;;;;5112302;28;20909;-77
2021/07/12 06:09:25;;;;;;;0.40;0.20;;;18.00;99.90;;;;;;5093569;28;20385;-77
2021/07/12 06:11:51;;;;;;;0.40;0.20;;;18.10;99.90;;;;;;5091888;28;20406;-77
2021/07/12 06:14:16;;;;;;;0.40;0.20;;;18.10;99.90;;;;;;5071906;28;20373;-77
2021/07/12 06:16:42;;;;;;;0.40;0.30;;;18.20;99.90;;;;;;5091928;28;20374;-86
2021/07/12 06:19:08;;;;;;;0.40;0.20;;;18.30;99.90;;;;;;5094833;28;20463;-81
2021/07/12 06:21:33;;;;;;;0.40;0.20;;;17.90;99.90;;;;;;5101100;28;20397;-86
2021/07/12 06:23:59;;;;;;;0.40;0.20;;;18.50;99.90;;;;;;5100616;28;20842;-88
2021/07/12 06:26:25;;;;;;;0.40;0.30;;;18.50;99.90;;;;;;5099396;28;20931;-87
2021/07/12 06:28:50;;;;;;;0.40;0.20;;;18.40;99.90;;;;;;5112028;28;20865;-88
2021/07/12 06:31:16;;;;;;;0.40;0.20;;;18.40;99.90;;;;;;5111396;28;20425;-87
2021/07/12 06:33:42;;;;;;;0.40;0.20;;;18.50;99.90;;;;;;5111840;28;20443;-87
2021/07/12 06:36:07;;;;;;;0.40;0.20;;;18.60;99.90;;;;;;5093457;28;20395;-86
2021/07/12 06:38:34;;;;;;;0.40;0.20;;;18.80;99.90;;;;;;5100143;28;20388;-86
2021/07/12 06:41:00;;;;;;;0.40;0.20;;;18.90;99.90;;;;;;5104501;28;20915;-84
2021/07/12 06:43:26;;;;;;;0.40;0.20;;;19.00;99.90;;;;;;5083206;28;20390;-87
2021/07/12 06:45:51;;;;;;;0.40;0.20;;;19.20;99.90;;;;;;5103568;28;20388;-86
2021/07/12 06:48:17;;;;;;;0.40;0.20;;;19.30;99.90;;;;;;5093248;28;20397;-79
2021/07/12 06:50:43;;;;;;;0.40;0.20;;;19.30;99.90;;;;;;5098969;28;20392;-79
2021/07/12 06:53:08;;;;;;;0.40;0.20;;;19.40;99.90;;;;;;5093692;28;20454;-79
2021/07/12 06:55:34;;;;;;;0.40;0.20;;;19.50;99.90;;;;;;5071996;28;20866;-78
2021/07/12 06:58:03;;;;;;;0.40;0.20;;;19.70;99.90;;;;;;5072896;28;20488;-77
2021/07/12 07:00:31;;;;;;;0.40;0.25;;;19.60;99.90;;;;;;5090012;28;20410;-78
2021/07/12 07:02:57;;;;;;;0.40;0.20;;;19.60;99.90;;;;;;5091125;28;20419;-80
2021/07/12 07:05:26;;;;;;;0.40;0.20;;;19.50;99.90;;;;;;5089871;28;20730;-80
2021/07/12 07:07:51;;;;;;;0.40;0.20;;;19.40;99.90;;;;;;5072836;28;20768;-81
2021/07/12 07:10:17;;;;;;;0.40;0.30;;;19.40;99.90;;;;;;5071980;28;20415;-80
2021/07/12 07:12:43;;;;;;;0.40;0.20;;;19.40;99.90;;;;;;5091027;28;20453;-80
2021/07/12 07:15:09;;;;;;;0.40;0.20;;;19.40;99.90;;;;;;5090428;28;20378;-79
2021/07/12 07:17:35;;;;;;;0.40;0.30;;;19.40;99.90;;;;;;5090192;28;20382;-81
2021/07/12 07:20:01;;;;;;;0.40;0.20;;;19.40;99.90;;;;;;5090425;28;20401;-79
2021/07/12 07:22:26;;;;;;;0.40;0.20;;;19.40;99.90;;;;;;5071836;28;20390;-81
2021/07/12 07:24:52;;;;;;;0.40;0.30;;;19.40;99.90;;;;;;5090390;28;20389;-78
2021/07/12 07:27:18;;;;;;;0.40;0.27;;;19.40;99.90;;;;;;5089653;28;20397;-81
2021/07/12 07:29:45;;;;;;;0.40;0.20;;;19.60;99.90;;;;;;5090636;28;20386;-78
2021/07/12 07:32:10;;;;;;;0.40;0.30;;;19.40;99.90;;;;;;5090499;28;20896;-79
2021/07/12 07:34:36;;;;;;;0.40;0.20;;;19.20;99.90;;;;;;5089484;28;20378;-78
2021/07/12 07:37:02;;;;;;;0.40;0.20;;;19.30;99.90;;;;;;5072573;28;20871;-80
2021/07/12 07:39:28;;;;;;;0.40;0.20;;;19.30;99.90;;;;;;5089462;28;20895;-80
2021/07/12 07:41:55;;;;;;;0.40;0.30;;;19.40;99.90;;;;;;5090641;28;20394;-79
2021/07/12 07:44:21;;;;;;;0.40;0.20;;;19.40;99.90;;;;;;5071666;28;20785;-80
2021/07/12 07:46:47;;;;;;;0.40;0.28;;;19.40;99.90;;;;;;5089946;28;20385;-79
2021/07/12 07:49:12;;;;;;;0.40;0.30;;;19.50;99.90;;;;;;5090218;28;20858;-81
2021/07/12 07:51:38;;;;;;;0.40;0.20;;;19.40;99.90;;;;;;5076693;28;20376;-79
2021/07/12 07:54:05;;;;;;;0.40;0.20;;;19.50;99.90;;;;;;5110125;28;20390;-79
2021/07/12 07:56:31;;;;;;;0.40;0.20;;;19.50;99.90;;;;;;5109289;28;20388;-79
2021/07/12 07:58:56;;;;;;;0.40;0.30;;;19.60;99.90;;;;;;5110366;28;20413;-81
2021/07/12 08:01:22;;;;;;;0.40;0.20;;;19.70;99.90;;;;;;5109807;28;20387;-81
2021/07/12 08:03:48;;;;;;;0.40;0.20;;;19.80;99.90;;;;;;5110253;28;20917;-79
2021/07/12 08:06:17;;;;;;;0.40;0.20;;;19.70;99.90;;;;;;5110232;28;20784;-82
2021/07/12 08:08:44;;;;;;;0.80;0.60;;;19.70;99.90;;;;;;5110416;28;20376;-80
2021/07/12 08:11:10;;;;;;;0.40;0.20;;;19.80;99.90;;;;;;5110625;28;20376;-80
2021/07/12 08:13:35;;;;;;;0.40;0.23;;;19.80;99.90;;;;;;5094256;28;21099;-81
2021/07/12 08:16:01;;;;;;;0.40;0.20;;;19.90;99.90;;;;;;5114181;28;20520;-79
2021/07/12 08:18:27;;;;;;;0.40;0.20;;;19.90;99.90;;;;;;5113490;28;20847;-85
2021/07/12 08:20:53;;;;;;;0.40;0.20;;;19.90;99.90;;;;;;5114064;28;20384;-86
2021/07/12 08:23:19;;;;;;;0.40;0.20;;;20.00;99.90;;;;;;5106379;28;20907;-79
2021/07/12 08:25:45;;;;;;;0.40;0.20;;;20.00;99.90;;;;;;5093807;28;20386;-83
2021/07/12 08:28:10;;;;;;;0.40;0.30;;;20.10;99.90;;;;;;5095739;28;20443;-83
2021/07/12 08:30:36;;;;;;;0.40;0.20;;;20.10;99.90;;;;;;5099501;28;20389;-84
2021/07/12 08:33:03;;;;;;;0.40;0.20;;;20.00;99.90;;;;;;5106032;28;20378;-80
2021/07/12 08:35:31;;;;;;;0.40;0.20;;;20.00;99.90;;;;;;5110009;28;20464;-85
2021/07/12 08:37:58;;;;;;;0.40;0.20;;;20.10;99.90;;;;;;5098464;28;20384;-83
2021/07/12 08:40:24;;;;;;;0.40;0.20;;;20.00;99.90;;;;;;5109916;28;20762;-81
2021/07/12 08:42:52;;;;;;;0.40;0.30;;;19.90;99.90;;;;;;5110496;28;20385;-82
2021/07/12 08:45:18;;;;;;;0.40;0.20;;;20.10;99.90;;;;;;5104879;28;20382;-79
2021/07/12 08:47:44;;;;;;;0.40;0.20;;;20.20;99.90;;;;;;5105113;28;20376;-82
2021/07/12 08:50:11;;;;;;;0.40;0.20;;;20.20;99.90;;;;;;5098123;28;20384;-84
2021/07/12 08:52:41;;;;;;;0.40;0.20;;;20.10;99.90;;;;;;5080138;28;20465;-81
2021/07/12 08:55:07;;;;;;;0.40;0.20;;;20.10;99.90;;;;;;5100254;28;20809;-82
2021/07/12 08:57:33;;;;;;;0.40;0.20;;;20.30;99.90;;;;;;5102566;28;20425;-83
2021/07/12 08:59:58;;;;;;;0.40;0.20;;;20.20;99.90;;;;;;5107017;28;20802;-85
2021/07/12 09:02:24;;;;;;;0.40;0.30;;;20.10;99.90;;;;;;5095283;28;20510;-85
2021/07/12 09:04:52;;;;;;;0.40;0.20;;;20.20;99.90;;;;;;5109321;28;20838;-84
2021/07/12 09:07:25;;;;;;;0.40;0.20;;;20.20;99.90;;;;;;5092500;28;20382;-81
2021/07/12 09:09:58;;;;;;;0.40;0.20;;;20.30;99.90;;;;;;5092908;28;20878;-83
2021/07/12 09:12:57;;;;;;;0.40;0.30;;;20.10;99.90;;;;;;5108249;28;20605;-81
2021/07/12 09:15:23;;;;;;;0.40;0.20;;;20.20;99.90;;;;;;5099544;28;20392;-80
2021/07/12 09:17:54;;;;;;;0.40;0.20;;;20.40;99.90;;;;;;5100962;28;20719;-82
2021/07/12 09:20:31;;;;;;;0.40;0.20;;;20.30;99.90;;;;;;5108923;28;20396;-78
2021/07/12 09:22:58;;;;;;;0.40;0.20;;;20.30;99.90;;;;;;5097439;28;20391;-81
2021/07/12 09:25:30;;;;;;;0.40;0.20;;;20.40;99.90;;;;;;5102258;28;20471;-83
2021/07/12 09:27:56;;;;;;;0.40;0.20;;;20.60;99.90;;;;;;5106164;28;20876;-83
2021/07/12 09:30:23;;;;;;;0.40;0.20;;;20.60;99.90;;;;;;5095188;28;20416;-79
2021/07/12 09:32:52;;;;;;;0.40;0.30;;;20.60;99.90;;;;;;5103399;28;20386;-82
2021/07/12 09:35:20;;;;;;;0.40;0.30;;;20.60;99.90;;;;;;5099914;28;20392;-79
2021/07/12 09:37:59;;;;;;;0.40;0.20;;;20.70;99.90;;;;;;5100713;28;20374;-85
2021/07/12 09:40:28;;;;;;;0.40;0.20;;;20.70;99.90;;;;;;5104346;28;20408;-81
2021/07/12 09:42:54;;;;;;;0.40;0.20;;;20.80;99.90;;;;;;5096545;28;20388;-82
2021/07/12 09:45:22;;;;;;;0.40;0.20;;;20.80;99.90;;;;;;5104465;28;20405;-79
2021/07/12 09:47:49;;;;;;;0.40;0.20;;;20.90;99.90;;;;;;5092227;28;20381;-84
2021/07/12 09:50:17;;;;;;;0.40;0.20;;;21.10;99.90;;;;;;5089288;28;20442;-82
2021/07/12 09:53:04;;;;;;;0.40;0.20;;;21.30;99.90;;;;;;5079317;28;20732;-84
2021/07/12 09:55:32;;;;;;;0.40;0.20;;;21.50;99.90;;;;;;5091701;28;20465;-86
2021/07/12 09:58:07;;;;;;;0.40;0.30;;;21.40;99.90;;;;;;5091983;28;20397;-86
2021/07/12 10:00:33;;;;;;;0.40;0.20;;;21.50;99.90;;;;;;5091321;28;20421;-86
2021/07/12 10:02:59;;;;;;;0.40;0.20;;;21.70;99.90;;;;;;5091403;28;20390;-85
2021/07/12 10:05:25;;;;;;;1.10;0.60;;;21.80;99.90;;;;;;5091172;28;20381;-82
2021/07/12 10:07:51;;;;;;;0.40;0.20;;;21.80;99.90;;;;;;5092032;28;20378;-83
2021/07/12 10:10:17;;;;;;;0.40;0.20;;;22.10;99.90;;;;;;5091748;28;20464;-83
2021/07/12 10:12:46;;;;;;;0.40;0.20;;;22.30;99.90;;;;;;5091002;28;20405;-85
2021/07/12 10:15:15;;;;;;;0.40;0.20;;;22.20;99.90;;;;;;5091912;28;20366;-83
2021/07/12 10:17:42;;;;;;;0.40;0.20;;;22.00;99.90;;;;;;5072680;28;20489;-86
2021/07/12 10:20:09;;;;;;;0.40;0.20;;;22.20;99.90;;;;;;5073192;28;20478;-83
2021/07/12 10:22:36;;;;;;;0.40;0.30;;;22.20;99.90;;;;;;5072679;28;20485;-84
2021/07/12 10:25:06;;;;;;;0.40;0.20;;;22.40;99.90;;;;;;5092745;28;20386;-85
2021/07/12 10:27:32;;;;;;;0.40;0.20;;;22.30;99.90;;;;;;5090531;28;20402;-83
2021/07/12 10:30:25;;;;;;;0.40;0.20;;;22.40;99.90;;;;;;5091069;28;20447;-86
2021/07/12 10:32:53;;;;;;;0.40;0.20;;;22.80;99.90;;;;;;5073322;28;20386;-84
2021/07/12 10:35:39;;;;;;;0.40;0.20;;;22.70;99.90;;;;;;5090979;28;20405;-80
2021/07/12 10:38:06;;;;;;;0.40;0.20;;;22.70;99.90;;;;;;5091366;28;20379;-84
2021/07/12 10:40:48;;;;;;;0.40;0.20;;;22.80;99.90;;;;;;5090550;28;20402;-82
2021/07/12 10:43:31;;;;;;;0.40;0.20;;;22.80;99.90;;;;;;5091426;28;20438;-81
2021/07/12 10:45:57;;;;;;;0.70;0.50;;;22.80;99.90;;;;;;5091153;28;20406;-87
2021/07/12 10:48:39;;;;;;;0.40;0.20;;;23.00;99.90;;;;;;5089808;28;20786;-82
2021/07/12 10:51:30;;;;;;;0.40;0.30;;;23.20;99.90;;;;;;5086936;28;20381;-86
2021/07/12 10:54:03;;;;;;;0.40;0.30;;;23.10;99.90;;;;;;5111434;28;20789;-84
2021/07/12 10:57:00;;;;;;;0.40;0.30;;;23.10;99.90;;;;;;5110625;28;20397;-82
2021/07/12 10:59:31;;;;;;;0.40;0.30;;;23.30;99.90;;;;;;5111033;28;20868;-82
2021/07/12 11:01:59;;;;;;;0.40;0.30;;;23.50;99.90;;;;;;5111529;28;20477;-82
2021/07/12 11:04:39;;;;;;;0.40;0.30;;;23.50;99.90;;;;;;5111621;28;20391;-80
2021/07/12 11:07:10;;;;;;;0.40;0.30;;;23.60;99.90;;;;;;5093212;28;20820;-84
2021/07/12 11:09:43;;;;;;;0.40;0.20;;;23.50;99.90;;;;;;5110791;28;20389;-82
2021/07/12 11:12:28;;;;;;;0.40;0.30;;;23.30;99.90;;;;;;5111693;28;20475;-82
2021/07/12 11:15:30;;;;;;;0.40;0.20;;;23.40;99.90;;;;;;5111530;28;20786;-82
2021/07/12 11:18:01;;;;;;;0.40;0.20;;;23.90;99.90;;;;;;5068701;28;20477;-83
2021/07/12 11:20:51;;;;;;;0.40;0.20;;;24.10;99.90;;;;;;5110896;28;20396;-80
2021/07/12 11:23:39;;;;;;;0.40;0.30;;;24.10;99.90;;;;;;5111141;28;20737;-83
2021/07/12 11:26:29;;;;;;;0.40;0.20;;;24.00;99.90;;;;;;5111902;28;20733;-85
2021/07/12 11:28:59;;;;;;;0.40;0.30;;;24.10;99.90;;;;;;5099393;28;20416;-83
2021/07/12 11:32:02;;;;;;;0.40;0.30;;;24.10;98.50;;;;;;5110297;28;20868;-83
2021/07/12 11:34:37;;;;;;;0.40;0.20;;;24.00;99.90;;;;;;5102366;28;20479;-81
2021/07/12 11:37:11;;;;;;;0.40;0.30;;;23.70;99.90;;;;;;5091070;28;20699;-82
2021/07/12 11:39:40;;;;;;;0.40;0.30;;;23.60;99.90;;;;;;5090184;28;20416;-82
2021/07/12 11:42:14;;;;;;;0.40;0.20;;;23.90;99.90;;;;;;5090272;28;20877;-82
2021/07/12 11:44:52;;;;;;;0.40;0.30;;;23.60;99.90;;;;;;5089931;28;20410;-82
2021/07/12 11:47:30;;;;;;;0.40;0.30;;;23.60;99.90;;;;;;5108793;28;20388;-82
2021/07/12 11:49:59;;;;;;;0.40;0.30;;;23.70;99.90;;;;;;5114578;28;20430;-84
2021/07/12 11:52:25;;;;;;;0.40;0.30;;;23.80;99.90;;;;;;5103604;28;20421;-83
2021/07/12 11:55:24;;;;;;;0.40;0.20;;;23.90;99.90;;;;;;5097543;28;20384;-80
2021/07/12 11:57:55;;;;;;;0.40;0.20;;;24.10;99.90;;;;;;5078624;28;20404;-83
2021/07/12 12:00:28;;;;;;;0.40;0.20;;;24.30;99.90;;;;;;5094229;28;20445;-84
2021/07/12 12:03:03;;;;;;;0.40;0.20;;;24.40;99.90;;;;;;5093754;28;20390;-83
2021/07/12 12:05:31;;;;;;;0.40;0.20;;;24.30;99.90;;;;;;5093621;28;20401;-81
2021/07/12 12:07:58;;;;;;;0.40;0.20;;;24.20;99.90;;;;;;5095088;28;20970;-85
2021/07/12 12:10:26;;;;;;;0.40;0.30;;;24.10;99.90;;;;;;5094374;28;20730;-83
2021/07/12 12:12:52;;;;;;;0.40;0.20;;;24.20;99.90;;;;;;5093463;28;20798;-83
2021/07/12 12:15:36;;;;;;;0.40;0.20;;;24.30;99.90;;;;;;5094398;28;20374;-85
2021/07/12 12:18:08;;;;;;;0.40;0.20;;;24.30;99.90;;;;;;5097986;28;20436;-83
2021/07/12 12:20:39;;;;;;;0.40;0.20;;;24.50;99.90;;;;;;5075249;28;20435;-83
2021/07/12 12:23:06;;;;;;;0.40;0.30;;;24.80;99.90;;;;;;5093900;28;20451;-82
2021/07/12 12:25:43;;;;;;;0.40;0.20;;;25.00;99.90;;;;;;5097532;28;20392;-80
2021/07/12 12:28:23;;;;;;;0.40;0.30;;;25.00;99.90;;;;;;5112682;28;20412;-84
2021/07/12 12:30:50;;;;;;;0.40;0.20;;;25.30;99.80;;;;;;5113480;28;20392;-84
2021/07/12 12:33:15;;;;;;;0.40;0.30;;;25.60;99.30;;;;;;5113827;28;20387;-82
2021/07/12 12:35:43;;;;;;;0.40;0.20;;;25.40;98.10;;;;;;5112800;28;20388;-83
2021/07/12 12:38:11;;;;;;;0.40;0.20;;;25.40;99.00;;;;;;5112558;28;20386;-88
2021/07/12 12:40:37;;;;;;;0.40;0.20;;;25.10;99.50;;;;;;5113189;28;20445;-83
2021/07/12 12:43:18;;;;;;;0.40;0.20;;;24.80;99.30;;;;;;5095801;28;20385;-83
2021/07/12 12:45:47;;;;;;;0.40;0.30;;;24.60;99.90;;;;;;5089123;28;20554;-78
2021/07/12 12:48:28;;;;;;;0.40;0.30;;;24.50;99.80;;;;;;5075199;28;20418;-79
2021/07/12 12:50:53;;;;;;;0.40;0.25;;;24.40;99.90;;;;;;5092693;28;20440;-82
2021/07/12 12:53:19;;;;;;;0.40;0.20;;;24.20;99.90;;;;;;5112510;28;20376;-82
2021/07/12 12:55:52;;;;;;;0.50;0.40;;;24.20;99.90;;;;;;5112988;28;20368;-84
2021/07/12 12:58:18;;;;;;;0.40;0.20;;;24.10;99.90;;;;;;5108908;28;20927;-81
2021/07/12 13:00:43;;;;;;;0.40;0.20;;;24.00;99.90;;;;;;5101421;28;20493;-82